Date,TemperatureHighF,TemperatureAvgF,TemperatureLowF,DewpointHighF,DewpointAvgF,DewpointLowF,HumidityHigh,HumidityAvg,HumidityLow,PressureMaxIn,PressureMinIn,WindSpeedMaxMPH,WindSpeedAvgMPH,GustSpeedMaxMPH,PrecipitationSumIn
2013-3-1,29.7,24.8,19.2,8.5,5.0,0.3,49,42,35,29.33,29.19,6,3,13,0.00
2013-3-2,32.7,20.5,10.9,2.4,-4.5,-10.6,46,33,20,29.33,29.27,4,2,9,0.00
2013-3-3,37.0,21.2,5.7,1.9,-8.1,-16.4,49,29,10,29.27,29.17,3,1,5,0.00
2013-3-4,37.2,26.8,17.8,13.3,4.2,-10.1,48,37,26,29.23,29.09,6,3,15,0.00
2013-3-5,35.2,30.3,24.3,22.1,17.1,11.8,69,58,45,29.17,28.95,3,1,7,0.00
2013-3-6,38.5,30.2,24.8,13.1,11.3,8.0,59,46,30,29.40,29.17,3,2,7,0.03
2013-3-7,48.0,31.9,22.3,12.6,7.1,-1.3,54,38,14,29.51,29.40,4,1,8,0.19
2013-3-8,42.3,29.9,17.8,14.4,9.1,5.5,59,43,23,29.54,29.38,6,3,14,0.00
2013-3-9,40.8,36.1,28.9,27.0,18.7,11.3,64,49,35,29.38,28.92,8,5,15,0.11
2013-3-10,45.0,41.3,37.9,43.3,37.5,24.9,98,87,59,28.94,28.73,5,3,12,0.81
2013-3-11,40.5,35.3,31.6,39.8,32.3,20.5,99,89,63,28.92,28.68,4,1,10,0.14
2013-3-12,41.0,30.4,24.8,22.5,13.3,5.8,70,50,30,29.14,28.92,8,3,16,0.02
2013-3-13,36.0,26.8,20.3,7.3,-4.0,-23.9,49,28,6,29.62,29.14,5,3,12,0.00
2013-3-14,39.0,28.3,18.1,20.6,8.2,-3.2,69,43,23,29.67,29.18,6,2,11,0.00
2013-3-15,41.9,33.8,27.3,28.0,22.6,16.4,82,64,38,29.19,28.89,5,1,10,0.11
2013-3-16,37.4,31.5,28.6,26.5,12.3,3.4,78,47,27,29.24,28.88,5,2,10,0.00
2013-3-17,41.4,29.8,21.0,10.8,1.2,-5.5,46,30,16,29.32,29.09,5,3,11,0.03
2013-3-18,38.7,29.8,18.7,21.2,11.8,-2.8,59,47,36,29.09,28.75,9,4,22,0.08
2013-3-19,35.1,22.8,13.6,-2.1,-7.3,-14.1,40,26,12,29.20,28.92,8,6,17,0.00
2013-3-20,27.5,17.8,9.7,-9.5,-14.7,-18.7,30,21,13,29.24,29.15,6,4,15,0.00
2013-3-21,34.7,21.1,9.5,-6.1,-10.4,-16.7,36,24,12,29.18,29.11,4,1,10,0.00
2013-3-22,41.4,26.5,13.3,1.4,-6.3,-13.6,46,25,10,29.18,29.12,4,1,7,0.00
2013-3-23,45.7,32.5,21.2,13.7,-0.3,-10.8,48,27,10,29.23,29.14,4,1,8,0.00
2013-3-24,39.0,32.3,29.3,19.3,12.3,7.6,64,44,30,29.16,28.85,7,4,14,0.00
2013-3-25,40.1,32.1,26.8,11.5,7.9,3.4,45,36,24,29.21,28.91,5,3,10,0.03
2013-3-26,46.4,36.5,31.1,11.7,5.1,-6.9,43,29,12,29.36,29.20,4,1,8,0.00
2013-3-27,45.3,36.3,27.0,13.1,2.0,-10.2,42,25,10,29.42,29.36,3,1,8,0.00
2013-3-28,51.1,36.9,23.0,16.2,-0.2,-13.2,52,26,6,29.44,29.36,3,1,8,0.00
2013-3-29,55.8,42.7,29.7,11.5,-2.9,-15.3,37,17,5,29.42,29.31,3,1,7,0.00
2013-3-30,59.4,45.3,32.5,31.0,12.0,1.8,57,27,12,29.34,28.96,10,4,22,0.00
2013-3-31,58.5,44.2,33.6,35.3,18.4,-0.6,71,40,11,29.04,28.87,6,4,17,0.00